Time;durP1;ratioP1;P1;durP2;ratioP2;P2;SDS_P1;SDS_P2;PMS_P1;PMS_P2;Temp;Humidity;BMP_temperature;BMP_pressure;BME280_temperature;BME280_humidity;BME280_pressure;Samples;Min_cycle;Max_cycle;Signal;HPM_P1;HPM_P2
2022/10/28 00:00:17;;;;;;;22.63;8.10;;;13.80;99.90;;;;;;4973790;28;20453;-87
2022/10/28 00:02:46;;;;;;;22.13;7.82;;;14.00;99.90;;;;;;4973719;28;20060;-85
2022/10/28 00:05:19;;;;;;;17.42;7.75;;;14.00;99.90;;;;;;4989362;28;20046;-86
2022/10/28 00:07:45;;;;;;;19.88;8.30;;;13.90;99.90;;;;;;4973510;28;20047;-86
2022/10/28 00:10:16;;;;;;;19.30;8.25;;;13.90;99.90;;;;;;4973459;28;20054;-86
2022/10/28 00:12:42;;;;;;;23.08;8.20;;;14.00;99.90;;;;;;4974018;28;20054;-88
2022/10/28 00:15:11;;;;;;;27.15;8.55;;;13.90;99.90;;;;;;4973561;28;20046;-87
2022/10/28 00:17:36;;;;;;;26.60;9.45;;;14.00;99.90;;;;;;4973041;28;20750;-86
2022/10/28 00:20:03;;;;;;;18.42;8.65;;;13.90;99.90;;;;;;4989078;28;20046;-86
2022/10/28 00:22:29;;;;;;;18.83;9.05;;;14.00;99.90;;;;;;4974439;28;20081;-87
2022/10/28 00:24:54;;;;;;;29.10;9.27;;;14.10;99.90;;;;;;4973558;28;20086;-86
2022/10/28 00:27:20;;;;;;;20.55;8.40;;;14.10;99.90;;;;;;4973717;28;20046;-87
2022/10/28 00:29:46;;;;;;;19.83;8.90;;;14.20;99.90;;;;;;4973806;28;20380;-86
2022/10/28 00:32:12;;;;;;;15.85;8.25;;;14.10;99.90;;;;;;4972928;28;20042;-86
2022/10/28 00:34:38;;;;;;;21.17;8.90;;;14.30;99.90;;;;;;4972976;28;20061;-86
2022/10/28 00:37:06;;;;;;;21.92;8.35;;;14.40;99.90;;;;;;4973372;28;20469;-86
2022/10/28 00:39:35;;;;;;;20.10;8.15;;;14.40;99.90;;;;;;4989340;28;20082;-85
2022/10/28 00:42:02;;;;;;;22.85;8.50;;;14.40;99.90;;;;;;4973839;28;20050;-87
2022/10/28 00:44:51;;;;;;;20.90;8.60;;;14.30;99.90;;;;;;4973396;28;20046;-86
2022/10/28 00:47:29;;;;;;;27.40;10.23;;;14.40;99.90;;;;;;4972776;28;20038;-86
2022/10/28 00:50:23;;;;;;;17.30;8.07;;;14.40;99.90;;;;;;4973653;28;20161;-86
2022/10/28 00:52:57;;;;;;;18.92;8.00;;;14.30;99.90;;;;;;4971659;28;20127;-86
2022/10/28 00:55:23;;;;;;;20.58;8.95;;;14.40;99.90;;;;;;4973817;28;20046;-87
2022/10/28 00:57:55;;;;;;;18.33;8.90;;;14.40;99.90;;;;;;4973403;28;20169;-86
2022/10/28 01:00:48;;;;;;;22.30;9.15;;;14.40;99.90;;;;;;4988982;28;20046;-86
2022/10/28 01:03:15;;;;;;;29.10;8.73;;;14.80;99.90;;;;;;4983841;28;20086;-86
2022/10/28 01:05:48;;;;;;;24.15;9.73;;;14.50;99.90;;;;;;4973412;28;20054;-86
2022/10/28 01:08:15;;;;;;;18.80;8.80;;;14.60;99.90;;;;;;4972537;28;20081;-86
2022/10/28 01:11:18;;;;;;;31.55;10.00;;;14.40;99.90;;;;;;4972988;28;20039;-87
2022/10/28 01:14:15;;;;;;;23.25;8.68;;;14.60;99.90;;;;;;4972397;28;20065;-86
2022/10/28 01:17:12;;;;;;;24.20;9.60;;;14.30;99.90;;;;;;4972938;28;20046;-86
2022/10/28 01:20:10;;;;;;;22.02;9.40;;;14.50;99.90;;;;;;4973128;28;20513;-86
2022/10/28 01:22:55;;;;;;;20.38;9.55;;;14.70;99.90;;;;;;4989118;28;20096;-86
2022/10/28 01:26:04;;;;;;;21.70;9.02;;;14.50;99.90;;;;;;4975691;28;20545;-86
2022/10/28 01:29:08;;;;;;;24.83;9.65;;;14.50;99.90;;;;;;5008240;28;20119;-86
2022/10/28 01:31:56;;;;;;;23.88;9.05;;;14.50;99.90;;;;;;4993266;28;20066;-86
2022/10/28 01:34:28;;;;;;;26.17;9.48;;;15.10;99.90;;;;;;4975242;28;20067;-86
2022/10/28 01:37:00;;;;;;;20.20;9.80;;;14.40;99.90;;;;;;4992485;28;20042;-86
2022/10/28 01:39:55;;;;;;;17.95;9.13;;;14.30;99.90;;;;;;4976099;28;20054;-86
2022/10/28 01:42:35;;;;;;;21.52;9.27;;;14.20;99.90;;;;;;4975545;28;20109;-86
2022/10/28 01:45:36;;;;;;;28.55;9.85;;;14.20;99.90;;;;;;4976219;28;20061;-87
2022/10/28 01:48:08;;;;;;;23.13;8.85;;;14.10;99.90;;;;;;4977054;28;20142;-86
2022/10/28 01:51:01;;;;;;;26.52;9.45;;;14.00;99.90;;;;;;4975935;28;20049;-86
2022/10/28 01:53:32;;;;;;;24.42;9.90;;;13.90;99.90;;;;;;4979819;28;20053;-85
2022/10/28 01:56:03;;;;;;;23.27;9.52;;;13.80;99.90;;;;;;4975399;28;20569;-87
2022/10/28 01:58:31;;;;;;;21.35;10.02;;;13.80;99.90;;;;;;4992522;28;20639;-86
2022/10/28 02:00:59;;;;;;;23.85;9.15;;;13.80;99.90;;;;;;4975329;28;20050;-87
2022/10/28 02:03:26;;;;;;;23.77;9.40;;;13.80;99.90;;;;;;4975490;28;20074;-87
2022/10/28 02:05:55;;;;;;;17.58;9.10;;;13.60;99.90;;;;;;4975267;28;20050;-86
2022/10/28 02:08:29;;;;;;;25.40;11.27;;;13.60;99.90;;;;;;4976192;28;20184;-86
2022/10/28 02:11:14;;;;;;;25.27;10.02;;;13.60;99.90;;;;;;4975034;28;20394;-86
2022/10/28 02:14:23;;;;;;;20.52;11.20;;;13.40;99.90;;;;;;4975609;28;20108;-86
2022/10/28 02:16:50;;;;;;;23.98;10.32;;;13.40;99.90;;;;;;4970662;28;20058;-86
2022/10/28 02:19:32;;;;;;;20.13;10.05;;;13.50;99.90;;;;;;4975000;28;20133;-86
2022/10/28 02:22:18;;;;;;;29.17;9.85;;;13.30;99.90;;;;;;4975449;28;20090;-86
2022/10/28 02:24:54;;;;;;;20.67;9.68;;;13.40;99.90;;;;;;4974485;28;20537;-86
2022/10/28 02:28:11;;;;;;;22.20;10.40;;;13.40;99.90;;;;;;4975310;28;20137;-86
2022/10/28 02:30:57;;;;;;;26.95;10.70;;;13.20;99.90;;;;;;4975021;28;20054;-86
2022/10/28 02:33:30;;;;;;;22.90;10.13;;;13.10;99.90;;;;;;4990386;28;20482;-86
2022/10/28 02:36:03;;;;;;;29.10;9.98;;;13.20;99.90;;;;;;4975211;28;20093;-86
2022/10/28 02:38:33;;;;;;;;;;;13.10;99.90;;;;;;4976582;28;20443;-86
2022/10/28 02:41:03;;;;;;;24.25;9.88;;;13.10;99.90;;;;;;4975030;28;20376;-87
2022/10/28 02:43:34;;;;;;;18.05;10.52;;;13.10;99.90;;;;;;4975709;28;20045;-87
2022/10/28 02:46:02;;;;;;;19.48;10.18;;;13.00;99.90;;;;;;4974576;28;20137;-86
2022/10/28 02:48:32;;;;;;;25.60;10.68;;;13.00;99.90;;;;;;4974830;28;20061;-86
2022/10/28 02:51:05;;;;;;;17.02;10.55;;;13.00;99.90;;;;;;4975387;28;20422;-86
2022/10/28 02:53:54;;;;;;;21.83;11.35;;;12.90;99.90;;;;;;4991366;28;20101;-86
2022/10/28 02:56:22;;;;;;;25.15;11.10;;;13.00;99.90;;;;;;4974752;28;20133;-86
2022/10/28 02:58:52;;;;;;;19.35;11.50;;;13.10;99.90;;;;;;4974092;28;20213;-86
2022/10/28 03:01:24;;;;;;;22.98;12.65;;;12.80;99.90;;;;;;4975495;28;20379;-86
2022/10/28 03:03:50;;;;;;;24.52;12.60;;;12.80;99.90;;;;;;4990703;28;20395;-87
2022/10/28 03:06:16;;;;;;;28.65;11.88;;;12.80;99.90;;;;;;4974840;28;20047;-86
2022/10/28 03:08:42;;;;;;;24.77;12.38;;;13.00;99.90;;;;;;4974877;28;20077;-86
2022/10/28 03:11:07;;;;;;;24.33;11.52;;;12.90;99.90;;;;;;4974502;28;20050;-86
2022/10/28 03:13:34;;;;;;;27.50;11.57;;;12.80;99.90;;;;;;4990182;28;20046;-87
2022/10/28 03:16:00;;;;;;;22.13;9.63;;;12.80;99.90;;;;;;4974045;28;20054;-87
2022/10/28 03:18:26;;;;;;;13.85;7.80;;;12.80;99.90;;;;;;4993574;28;20100;-85
2022/10/28 03:20:51;;;;;;;15.20;7.97;;;12.90;99.90;;;;;;4994077;28;20053;-86
2022/10/28 03:23:17;;;;;;;23.58;10.00;;;12.50;99.90;;;;;;4993254;28;20042;-87
2022/10/28 03:25:51;;;;;;;25.42;12.00;;;12.60;99.90;;;;;;4993771;28;20061;-87
2022/10/28 03:28:16;;;;;;;29.95;14.50;;;12.60;99.90;;;;;;4993835;28;20061;-86
2022/10/28 03:30:42;;;;;;;22.98;13.13;;;12.70;99.90;;;;;;4994390;28;20050;-86
2022/10/28 03:33:08;;;;;;;29.75;14.93;;;12.60;99.90;;;;;;4993632;28;20474;-86
2022/10/28 03:35:34;;;;;;;40.13;15.02;;;12.70;99.90;;;;;;4993626;28;20050;-86
2022/10/28 03:37:59;;;;;;;31.08;15.07;;;12.80;99.90;;;;;;4993668;28;20099;-86
2022/10/28 03:40:28;;;;;;;39.60;16.52;;;12.90;99.90;;;;;;4993451;28;20050;-86
2022/10/28 03:42:54;;;;;;;31.60;14.40;;;12.70;99.90;;;;;;4993376;28;20056;-86
2022/10/28 03:45:20;;;;;;;33.45;16.02;;;12.60;99.90;;;;;;4992952;28;20038;-86
2022/10/28 03:47:51;;;;;;;35.25;15.05;;;13.30;99.90;;;;;;5009624;28;20078;-87
2022/10/28 03:50:17;;;;;;;28.30;15.18;;;12.80;99.90;;;;;;4993305;28;20049;-86
2022/10/28 03:52:45;;;;;;;36.95;16.38;;;12.80;99.90;;;;;;4983810;28;20112;-86
2022/10/28 03:55:11;;;;;;;37.40;15.75;;;12.80;99.90;;;;;;4974075;28;20042;-87
2022/10/28 03:57:42;;;;;;;29.65;14.50;;;12.90;99.90;;;;;;4990334;28;20058;-86
2022/10/28 04:00:08;;;;;;;35.50;16.05;;;12.80;99.90;;;;;;4974130;28;20080;-87
2022/10/28 04:02:37;;;;;;;31.40;15.77;;;12.70;99.90;;;;;;4973513;28;20053;-86
2022/10/28 04:05:05;;;;;;;44.78;19.05;;;12.60;99.90;;;;;;4990188;28;20050;-85
2022/10/28 04:07:34;;;;;;;39.75;17.10;;;12.80;99.90;;;;;;4989946;28;20513;-85
2022/10/28 04:10:03;;;;;;;40.45;14.95;;;12.70;99.90;;;;;;4973958;28;20475;-87
2022/10/28 04:13:03;;;;;;;28.65;14.68;;;12.50;99.90;;;;;;4976565;28;20061;-87
2022/10/28 04:15:30;;;;;;;20.90;9.85;;;12.60;99.90;;;;;;4973825;28;20129;-87
2022/10/28 04:17:56;;;;;;;19.77;10.50;;;12.40;99.90;;;;;;4989441;28;20046;-86
2022/10/28 04:20:26;;;;;;;22.45;11.73;;;12.30;99.90;;;;;;4974004;28;20069;-86
2022/10/28 04:22:53;;;;;;;24.42;12.65;;;12.40;99.90;;;;;;4976194;28;20056;-86
2022/10/28 04:25:23;;;;;;;27.85;13.45;;;12.40;99.90;;;;;;4973425;28;20058;-86
2022/10/28 04:27:52;;;;;;;31.10;13.68;;;12.40;99.90;;;;;;4980796;28;20056;-86
2022/10/28 04:30:20;;;;;;;20.33;12.35;;;12.20;99.90;;;;;;4992603;28;20124;-86
2022/10/28 04:32:46;;;;;;;27.33;13.27;;;12.30;99.90;;;;;;4991962;28;20096;-86
2022/10/28 04:35:13;;;;;;;25.58;14.15;;;12.40;99.90;;;;;;4992805;28;20049;-86
2022/10/28 04:37:39;;;;;;;32.88;14.30;;;12.10;99.90;;;;;;4991039;28;20045;-86
2022/10/28 04:40:07;;;;;;;36.83;16.02;;;12.40;99.90;;;;;;4992764;28;20045;-86
2022/10/28 04:42:33;;;;;;;28.70;12.77;;;12.30;99.90;;;;;;4992413;28;20099;-87
2022/10/28 04:44:58;;;;;;;26.83;11.65;;;12.20;99.90;;;;;;4992301;28;20464;-86
2022/10/28 04:47:24;;;;;;;25.83;10.75;;;12.20;99.90;;;;;;4992511;28;20050;-87
2022/10/28 04:49:50;;;;;;;40.13;16.83;;;12.30;99.90;;;;;;4992705;28;20042;-86
2022/10/28 04:52:15;;;;;;;28.70;16.63;;;12.10;99.90;;;;;;4992187;28;20042;-86
2022/10/28 04:54:47;;;;;;;40.35;17.48;;;12.70;99.90;;;;;;4992352;28;20489;-86
2022/10/28 04:57:16;;;;;;;32.63;17.30;;;12.40;99.90;;;;;;4993816;28;20060;-86
2022/10/28 04:59:48;;;;;;;38.03;17.83;;;12.30;99.90;;;;;;4996414;28;20068;-87
2022/10/28 05:02:23;;;;;;;41.58;18.35;;;12.40;99.90;;;;;;4997094;28;20069;-86
2022/10/28 05:04:49;;;;;;;33.45;17.60;;;12.50;99.90;;;;;;4996992;28;20054;-87
2022/10/28 05:07:17;;;;;;;36.70;18.20;;;12.50;99.90;;;;;;4995786;28;20040;-87
2022/10/28 05:09:43;;;;;;;38.53;19.70;;;12.60;99.90;;;;;;4996442;28;20129;-86
2022/10/28 05:12:12;;;;;;;43.55;19.15;;;12.30;99.90;;;;;;4995523;28;20108;-86
2022/10/28 05:14:47;;;;;;;37.90;19.50;;;12.50;99.90;;;;;;4995592;28;20038;-86
2022/10/28 05:17:19;;;;;;;51.10;20.00;;;12.50;99.90;;;;;;4996538;28;20096;-86
2022/10/28 05:19:47;;;;;;;37.17;19.20;;;12.50;99.90;;;;;;4995584;28;20049;-86
2022/10/28 05:22:27;;;;;;;47.30;18.92;;;12.70;99.90;;;;;;4996088;28;20192;-86
2022/10/28 05:24:56;;;;;;;39.92;18.25;;;12.70;99.90;;;;;;5011914;28;20500;-85
2022/10/28 06:25:44;;;;;;;38.95;16.05;;;12.50;99.90;;;;;;4946871;29;20130;-87
2022/10/28 06:28:48;;;;;;;;;;;;;;;;;;;;;
2022/10/28 06:37:05;;;;;;;35.90;15.70;;;12.50;99.90;;;;;;5429184;23;20074;-90
2022/10/28 06:39:44;;;;;;;;;;;;;;;;;;;;;
2022/10/28 06:42:37;;;;;;;34.55;16.42;;;12.60;99.90;;;;;;4880206;29;20056;-86
2022/10/28 06:47:56;;;;;;;28.63;14.75;;;12.40;99.90;;;;;;4880565;29;20054;-86
2022/10/28 06:50:29;;;;;;;29.58;15.60;;;12.60;99.90;;;;;;4880259;29;20059;-86
2022/10/28 06:53:01;;;;;;;;;;;12.60;99.90;;;;;;4880101;29;20501;-88
2022/10/28 06:55:54;;;;;;;38.13;16.08;;;12.70;99.90;;;;;;4879849;29;20427;-86
2022/10/28 06:58:54;;;;;;;44.00;15.32;;;12.50;99.90;;;;;;4819043;29;20132;-86
2022/10/28 07:01:23;;;;;;;40.17;15.93;;;12.50;99.90;;;;;;4880627;29;20044;-86
2022/10/28 07:09:44;;;;;;;34.22;15.93;;;12.80;99.90;;;;;;4954793;28;20046;-85
2022/10/28 07:12:12;;;;;;;31.48;15.50;;;12.80;99.90;;;;;;4939348;28;20047;-85
2022/10/28 07:15:33;;;;;;;35.78;15.68;;;12.60;99.90;;;;;;4938996;28;20113;-86
2022/10/28 07:19:01;;;;;;;28.73;15.07;;;12.90;99.90;;;;;;4957248;28;20066;-85
2022/10/28 07:31:07;;;;;;;37.67;15.35;;;13.10;99.90;;;;;;5759542;23;20051;-86
2022/10/28 07:37:56;;;;;;;35.00;13.52;;;13.20;99.90;;;;;;4856686;29;20053;-86
2022/10/28 07:41:11;;;;;;;26.40;13.65;;;13.20;99.90;;;;;;4799207;29;20167;-86
2022/10/28 07:47:26;;;;;;;;;;;;;;;;;;;;;
2022/10/28 07:53:52;;;;;;;25.05;12.88;;;13.50;99.90;;;;;;4865002;23;20050;-86
2022/10/28 07:57:37;;;;;;;25.30;11.70;;;13.80;99.90;;;;;;4896414;29;20600;-86
2022/10/28 08:00:11;;;;;;;27.98;12.10;;;13.80;99.90;;;;;;4872268;29;20083;-86
2022/10/28 08:03:08;;;;;;;24.45;11.48;;;14.00;99.90;;;;;;4909996;29;20559;-86
2022/10/28 08:06:31;;;;;;;26.83;10.95;;;14.00;99.90;;;;;;4915466;29;20051;-86
2022/10/28 08:09:50;;;;;;;20.83;9.77;;;14.00;99.90;;;;;;4929043;29;20163;-86
2022/10/28 08:13:35;;;;;;;19.90;10.35;;;14.20;99.90;;;;;;4881812;29;20376;-86
2022/10/28 08:23:01;;;;;;;22.00;8.15;;;14.70;99.90;;;;;;4937407;28;20098;-86
2022/10/28 08:28:36;;;;;;;29.27;7.38;;;15.10;99.90;;;;;;4914717;28;20557;-86
2022/10/28 08:31:25;;;;;;;23.52;7.40;;;15.30;99.90;;;;;;4935308;28;20443;-85
2022/10/28 08:36:44;;;;;;;24.77;7.60;;;15.50;99.90;;;;;;4952980;28;20432;-86
2022/10/28 08:39:10;;;;;;;18.27;6.93;;;15.70;99.90;;;;;;4952555;28;20190;-86
2022/10/28 08:42:06;;;;;;;23.05;7.05;;;15.70;99.90;;;;;;4937487;28;20042;-87
2022/10/28 08:44:54;;;;;;;23.30;6.82;;;15.60;99.90;;;;;;4936889;28;20043;-86
2022/10/28 08:48:02;;;;;;;22.48;6.85;;;15.90;99.90;;;;;;4952632;28;20064;-86
2022/10/28 08:50:54;;;;;;;28.73;8.27;;;16.10;99.90;;;;;;4937053;28;20097;-87
2022/10/28 08:53:56;;;;;;;24.10;6.72;;;16.20;99.90;;;;;;4937284;28;20050;-87
2022/10/28 08:56:33;;;;;;;25.58;6.28;;;16.40;99.90;;;;;;4915347;28;20145;-86
2022/10/28 08:59:03;;;;;;;18.85;6.50;;;16.40;99.90;;;;;;4936969;28;20362;-86
2022/10/28 09:02:02;;;;;;;22.23;6.75;;;16.40;99.90;;;;;;4937898;28;20050;-86
2022/10/28 09:04:48;;;;;;;21.15;6.20;;;16.60;99.90;;;;;;4936508;28;20046;-85
2022/10/28 09:07:31;;;;;;;22.17;6.38;;;16.70;99.90;;;;;;4936514;28;20051;-86
2022/10/28 09:09:57;;;;;;;21.30;6.07;;;16.70;99.90;;;;;;4952269;28;20038;-86
2022/10/28 09:12:50;;;;;;;14.50;5.25;;;16.80;99.90;;;;;;4936616;28;20053;-86
2022/10/28 09:15:35;;;;;;;27.23;6.50;;;16.50;99.90;;;;;;4937088;28;20566;-85
2022/10/28 09:18:21;;;;;;;16.90;5.35;;;16.80;99.90;;;;;;4936366;28;20411;-86
2022/10/28 09:21:01;;;;;;;14.38;5.10;;;16.80;99.90;;;;;;4936950;28;20047;-86
2022/10/28 09:23:48;;;;;;;19.80;5.82;;;16.90;99.90;;;;;;4936740;28;20055;-86
2022/10/28 09:26:49;;;;;;;23.08;5.68;;;16.90;99.90;;;;;;4952486;28;20528;-86
2022/10/28 09:29:53;;;;;;;20.67;5.78;;;17.00;99.90;;;;;;4953292;28;20407;-86
2022/10/28 09:32:39;;;;;;;27.13;6.40;;;17.00;99.90;;;;;;4936400;28;20129;-86
2022/10/28 09:35:10;;;;;;;19.48;5.65;;;17.00;99.90;;;;;;4937049;28;20384;-87
2022/10/28 09:37:43;;;;;;;20.55;6.13;;;17.10;99.90;;;;;;4953097;28;20126;-86
2022/10/28 09:40:18;;;;;;;18.73;6.07;;;17.10;99.90;;;;;;4951890;28;20051;-86
2022/10/28 09:43:19;;;;;;;20.33;5.63;;;17.20;99.90;;;;;;4952027;28;20038;-85
2022/10/28 09:45:47;;;;;;;28.30;5.97;;;17.10;99.90;;;;;;4939835;28;20054;-86
2022/10/28 09:48:31;;;;;;;16.25;5.43;;;17.20;99.90;;;;;;4954052;28;20042;-86
2022/10/28 09:50:58;;;;;;;19.60;5.60;;;17.20;99.90;;;;;;4954782;28;20042;-86
2022/10/28 09:53:32;;;;;;;20.55;6.47;;;17.20;99.90;;;;;;4959415;28;20043;-85
2022/10/28 09:55:57;;;;;;;18.52;5.40;;;17.20;99.90;;;;;;4938682;28;20153;-85
2022/10/28 09:58:23;;;;;;;21.08;6.82;;;17.20;99.90;;;;;;4939607;28;20082;-85
2022/10/28 10:00:59;;;;;;;20.08;5.60;;;17.20;99.90;;;;;;4943335;28;20054;-85
2022/10/28 10:03:28;;;;;;;17.08;5.90;;;17.20;99.90;;;;;;4938482;28;20200;-86
2022/10/28 10:06:14;;;;;;;13.80;5.30;;;17.20;99.90;;;;;;4955113;28;20048;-85
2022/10/28 10:08:40;;;;;;;19.92;6.03;;;17.30;99.90;;;;;;4954439;28;20057;-86
2022/10/28 10:11:24;;;;;;;24.48;5.80;;;17.30;99.90;;;;;;4939455;28;20053;-86
2022/10/28 10:13:51;;;;;;;20.45;5.57;;;17.30;99.90;;;;;;4954361;28;20105;-85
2022/10/28 10:16:25;;;;;;;21.15;5.70;;;17.40;99.90;;;;;;4948106;28;20833;-84
2022/10/28 10:18:56;;;;;;;21.13;5.75;;;17.40;99.90;;;;;;4915412;29;20087;-84
2022/10/28 10:21:41;;;;;;;16.80;5.13;;;17.50;99.90;;;;;;4951335;29;20043;-84
2022/10/28 10:24:26;;;;;;;20.20;5.57;;;17.50;99.90;;;;;;4950939;29;20050;-85
2022/10/28 10:26:53;;;;;;;18.33;5.40;;;17.60;99.90;;;;;;4951666;29;20047;-85
2022/10/28 10:29:23;;;;;;;27.25;5.50;;;17.70;99.90;;;;;;4949633;28;20066;-85
2022/10/28 10:32:05;;;;;;;17.40;5.10;;;17.70;99.90;;;;;;4916287;29;20087;-85
2022/10/28 10:34:32;;;;;;;15.20;5.35;;;17.80;99.90;;;;;;4915643;29;20048;-85
2022/10/28 10:36:59;;;;;;;19.58;5.20;;;17.80;99.90;;;;;;4915813;29;20067;-85
2022/10/28 10:39:28;;;;;;;21.75;5.45;;;17.90;99.90;;;;;;4916290;29;20139;-85
2022/10/28 10:41:54;;;;;;;20.02;5.47;;;17.90;99.90;;;;;;4925048;29;20081;-85
2022/10/28 10:44:20;;;;;;;18.52;5.65;;;18.00;99.90;;;;;;4934556;29;20591;-85
2022/10/28 10:47:07;;;;;;;19.63;5.45;;;18.00;99.90;;;;;;4950615;29;20085;-85
2022/10/28 10:49:34;;;;;;;18.80;5.72;;;18.00;99.90;;;;;;4950074;29;20496;-85
2022/10/28 10:52:06;;;;;;;23.83;5.50;;;18.10;99.90;;;;;;4950484;29;20063;-85
2022/10/28 10:54:33;;;;;;;25.83;4.77;;;18.10;99.90;;;;;;4950925;28;20119;-85
2022/10/28 10:57:16;;;;;;;25.98;5.80;;;18.20;99.90;;;;;;4950065;29;20047;-84
2022/10/28 10:59:51;;;;;;;18.48;5.47;;;18.20;99.90;;;;;;4951073;29;20047;-85
2022/10/28 11:02:33;;;;;;;23.00;5.25;;;18.30;99.90;;;;;;4934902;29;20178;-84
2022/10/28 11:05:02;;;;;;;19.73;5.40;;;18.30;99.90;;;;;;4950123;29;20047;-85
2022/10/28 11:07:31;;;;;;;19.15;5.07;;;18.30;99.90;;;;;;4950313;29;20055;-85
2022/10/28 11:09:57;;;;;;;25.92;6.07;;;18.30;99.90;;;;;;4950668;29;20043;-85
2022/10/28 11:12:30;;;;;;;21.15;5.30;;;18.30;99.90;;;;;;4949365;29;20050;-85
2022/10/28 11:14:59;;;;;;;17.83;5.07;;;18.30;99.90;;;;;;4934625;29;20040;-85
2022/10/28 11:17:32;;;;;;;16.13;5.50;;;18.20;99.90;;;;;;4952565;28;20399;-85
2022/10/28 11:20:05;;;;;;;22.95;5.78;;;18.30;99.90;;;;;;4937057;28;20047;-85
2022/10/28 11:22:41;;;;;;;20.77;5.18;;;18.30;99.90;;;;;;4953699;28;20360;-86
2022/10/28 11:25:35;;;;;;;17.15;4.72;;;18.40;99.90;;;;;;4936873;28;20402;-85
2022/10/28 11:28:23;;;;;;;15.95;5.05;;;18.50;99.90;;;;;;4937068;28;20051;-85
2022/10/28 11:30:55;;;;;;;17.20;5.13;;;18.50;99.90;;;;;;4937603;28;20426;-86
2022/10/28 11:33:35;;;;;;;22.00;5.68;;;18.50;99.90;;;;;;4936791;28;20049;-85
2022/10/28 11:36:10;;;;;;;19.88;5.13;;;18.60;99.90;;;;;;4937887;28;20050;-85
2022/10/28 11:39:13;;;;;;;22.02;5.40;;;18.70;99.90;;;;;;4937623;28;20086;-85
2022/10/28 11:41:53;;;;;;;16.53;4.20;;;18.80;99.90;;;;;;4937274;28;20514;-85
2022/10/28 11:44:47;;;;;;;22.27;4.97;;;18.80;99.90;;;;;;4937864;28;20074;-85
2022/10/28 11:47:40;;;;;;;17.88;5.22;;;19.00;99.90;;;;;;4937048;28;20483;-84
2022/10/28 11:50:28;;;;;;;18.42;4.80;;;19.00;99.90;;;;;;4938364;28;20439;-86
2022/10/28 11:53:16;;;;;;;20.75;5.40;;;19.00;99.90;;;;;;4933664;29;20066;-86
2022/10/28 11:55:52;;;;;;;22.98;4.32;;;19.10;99.90;;;;;;4917887;29;20046;-85
2022/10/28 11:58:30;;;;;;;24.33;5.00;;;19.10;99.90;;;;;;4918434;29;20154;-86
2022/10/28 12:01:03;;;;;;;14.40;4.93;;;19.20;99.90;;;;;;4933305;29;20403;-85
2022/10/28 12:03:48;;;;;;;;;;;19.30;99.90;;;;;;4918556;29;20047;-85
2022/10/28 12:06:51;;;;;;;18.17;4.32;;;19.30;99.90;;;;;;4933997;29;20493;-85
2022/10/28 12:09:46;;;;;;;22.17;4.30;;;19.40;99.90;;;;;;4933148;29;20055;-86
2022/10/28 12:12:33;;;;;;;17.92;4.53;;;19.50;99.90;;;;;;4933881;29;20083;-85
2022/10/28 12:15:13;;;;;;;15.88;4.38;;;19.50;99.90;;;;;;4932904;29;20039;-86
2022/10/28 12:17:46;;;;;;;19.33;4.90;;;19.60;99.90;;;;;;4916900;29;20065;-86
2022/10/28 12:20:24;;;;;;;17.65;4.75;;;19.50;99.90;;;;;;4934338;29;20057;-85
2022/10/28 12:22:55;;;;;;;20.23;5.18;;;19.50;99.90;;;;;;4916950;29;20039;-84
2022/10/28 12:25:26;;;;;;;22.17;4.85;;;19.50;99.90;;;;;;4918173;29;20055;-85
2022/10/28 12:27:58;;;;;;;24.23;5.00;;;19.50;99.90;;;;;;4933227;29;20051;-84
2022/10/28 12:30:29;;;;;;;20.57;5.00;;;19.50;99.90;;;;;;4917305;29;20039;-85
2022/10/28 12:33:00;;;;;;;21.52;5.10;;;19.50;99.90;;;;;;4917143;29;20381;-86
2022/10/28 12:35:32;;;;;;;17.70;5.25;;;19.50;99.90;;;;;;4948838;29;20043;-85
2022/10/28 12:38:02;;;;;;;18.92;4.72;;;19.50;99.90;;;;;;4917964;29;20377;-89
2022/10/28 12:40:34;;;;;;;19.13;4.70;;;19.40;99.90;;;;;;4935779;29;20047;-91
2022/10/28 12:43:13;;;;;;;21.15;5.15;;;19.40;99.90;;;;;;4937810;28;20414;-94
2022/10/28 12:45:40;;;;;;;21.85;5.05;;;19.40;99.90;;;;;;4939287;28;20043;-94
2022/10/28 12:48:21;;;;;;;18.27;4.90;;;19.20;99.90;;;;;;4939401;28;20573;-92
2022/10/28 12:50:53;;;;;;;24.15;5.53;;;19.30;99.90;;;;;;4938917;28;20046;-94
2022/10/28 12:53:23;;;;;;;;;;;19.30;99.90;;;;;;4939086;28;20495;-92
2022/10/28 12:55:59;;;;;;;17.20;5.38;;;19.30;99.90;;;;;;4939720;28;20005;-94
2022/10/28 12:58:37;;;;;;;21.58;5.55;;;19.30;99.90;;;;;;4939277;28;20047;-92
2022/10/28 13:01:18;;;;;;;18.23;5.20;;;19.30;99.90;;;;;;4939284;28;20047;-93
2022/10/28 13:03:44;;;;;;;17.73;5.60;;;19.30;99.90;;;;;;4939268;28;20094;-93
2022/10/28 13:06:40;;;;;;;21.08;5.90;;;19.30;99.90;;;;;;4939275;28;20050;-93
2022/10/28 13:09:14;;;;;;;26.17;5.82;;;19.30;99.90;;;;;;4939426;28;20050;-92
2022/10/28 13:11:55;;;;;;;24.95;5.50;;;19.30;99.90;;;;;;4939231;28;20046;-93
2022/10/28 13:14:32;;;;;;;18.65;5.10;;;19.30;99.90;;;;;;4974303;28;20046;-92
2022/10/28 13:17:21;;;;;;;19.40;5.78;;;19.30;99.90;;;;;;4958177;28;20062;-92
2022/10/28 13:20:07;;;;;;;17.08;5.50;;;19.40;99.90;;;;;;4961806;28;20047;-93
2022/10/28 13:23:02;;;;;;;27.88;5.93;;;19.40;99.90;;;;;;4962841;28;20165;-94
2022/10/28 13:25:54;;;;;;;18.88;5.40;;;19.40;99.90;;;;;;4961563;28;20080;-94
2022/10/28 13:28:29;;;;;;;24.70;5.38;;;19.50;99.90;;;;;;4978472;28;20050;-90
2022/10/28 13:31:00;;;;;;;28.33;5.03;;;19.50;99.90;;;;;;4984448;28;20058;-95
2022/10/28 13:33:46;;;;;;;22.80;5.80;;;19.50;99.90;;;;;;4977460;28;20182;-90
2022/10/28 13:36:27;;;;;;;17.23;4.90;;;19.60;99.90;;;;;;4991526;28;20046;-86
2022/10/28 13:38:59;;;;;;;21.83;4.90;;;19.70;99.90;;;;;;4966082;28;20042;-86
2022/10/28 13:41:34;;;;;;;18.35;5.43;;;19.70;99.90;;;;;;4963210;28;20094;-85
2022/10/28 13:44:07;;;;;;;25.30;6.05;;;19.70;99.90;;;;;;4988699;28;20112;-86
2022/10/28 13:46:56;;;;;;;17.40;4.75;;;19.80;99.90;;;;;;4939942;28;20046;-86
2022/10/28 13:49:24;;;;;;;18.73;4.95;;;19.80;99.90;;;;;;4952885;28;20133;-85
2022/10/28 13:51:58;;;;;;;18.92;5.75;;;19.80;99.90;;;;;;4971502;28;20053;-86
2022/10/28 13:54:26;;;;;;;30.55;5.85;;;19.70;99.90;;;;;;4957100;28;20089;-85
2022/10/28 13:56:52;;;;;;;23.88;6.45;;;19.70;99.90;;;;;;4971730;28;20076;-85
2022/10/28 13:59:25;;;;;;;17.48;5.30;;;19.60;99.90;;;;;;4972001;28;20050;-87
2022/10/28 14:01:53;;;;;;;19.52;5.22;;;19.60;99.90;;;;;;4966376;28;20094;-86
2022/10/28 14:04:32;;;;;;;21.35;5.50;;;19.60;99.90;;;;;;4939001;28;20042;-85
2022/10/28 14:07:07;;;;;;;26.15;5.72;;;19.50;99.90;;;;;;4939159;28;20153;-86
2022/10/28 14:09:34;;;;;;;23.05;6.25;;;19.50;99.90;;;;;;4955400;28;20488;-86
2022/10/28 14:12:23;;;;;;;25.80;5.75;;;19.50;99.90;;;;;;4939408;28;20117;-86
2022/10/28 14:15:05;;;;;;;20.77;5.13;;;19.40;99.90;;;;;;4938455;28;20061;-85
2022/10/28 14:17:44;;;;;;;27.15;5.72;;;19.40;99.90;;;;;;4938428;28;20059;-86
2022/10/28 14:20:22;;;;;;;24.38;5.40;;;19.40;99.90;;;;;;4971295;28;20058;-85
2022/10/28 14:22:49;;;;;;;23.98;5.18;;;19.30;99.90;;;;;;4954641;28;20059;-86
2022/10/28 14:25:42;;;;;;;26.27;6.00;;;19.40;99.90;;;;;;4955463;28;20058;-86
2022/10/28 14:28:30;;;;;;;19.63;5.57;;;19.30;99.90;;;;;;4938854;28;20047;-84
2022/10/28 14:31:10;;;;;;;20.02;5.88;;;19.20;99.90;;;;;;4938247;28;20521;-86
2022/10/28 14:34:05;;;;;;;22.77;4.93;;;19.20;99.90;;;;;;4939502;28;20074;-86
2022/10/28 14:36:46;;;;;;;21.83;5.78;;;19.20;99.90;;;;;;4921626;28;20047;-85
2022/10/28 14:39:31;;;;;;;19.13;5.30;;;19.20;99.90;;;;;;4937784;28;20047;-86
2022/10/28 14:42:15;;;;;;;26.90;5.95;;;19.20;99.90;;;;;;4946981;28;20102;-86
2022/10/28 14:44:56;;;;;;;23.27;5.88;;;19.10;99.90;;;;;;4953510;28;20047;-86
2022/10/28 14:47:54;;;;;;;24.65;5.90;;;19.10;99.90;;;;;;4952555;28;20050;-85
2022/10/28 14:50:25;;;;;;;24.83;5.55;;;19.10;99.90;;;;;;4952463;28;20055;-86
2022/10/28 14:52:54;;;;;;;15.95;4.93;;;19.10;99.90;;;;;;4943923;28;20398;-85
2022/10/28 14:55:37;;;;;;;21.33;5.47;;;19.10;99.90;;;;;;4951052;28;20138;-84
2022/10/28 14:58:26;;;;;;;16.73;5.70;;;19.10;99.90;;;;;;4954103;28;20058;-90
2022/10/28 15:01:15;;;;;;;23.52;5.60;;;19.00;99.90;;;;;;4952456;28;20090;-85
2022/10/28 15:03:44;;;;;;;15.05;5.05;;;18.90;99.90;;;;;;4935250;28;20062;-85
2022/10/28 15:06:41;;;;;;;28.20;5.63;;;18.90;99.90;;;;;;4967602;28;20447;-86
2022/10/28 15:09:20;;;;;;;20.50;5.80;;;18.90;99.90;;;;;;4936256;28;20141;-85
2022/10/28 15:12:00;;;;;;;21.67;5.53;;;18.90;99.90;;;;;;4951012;28;20050;-84
2022/10/28 15:14:36;;;;;;;20.58;5.57;;;18.80;99.90;;;;;;4936142;28;20057;-85
2022/10/28 15:17:10;;;;;;;18.85;5.07;;;18.80;99.90;;;;;;4948630;28;20518;-85